Time;durP1;ratioP1;P1;durP2;ratioP2;P2;SDS_P1;SDS_P2;PMS_P1;PMS_P2;Temp;Humidity;BMP_temperature;BMP_pressure;BME280_temperature;BME280_humidity;BME280_pressure;Samples;Min_cycle;Max_cycle;Signal;HPM_P1;HPM_P2
2024/01/18 00:00:40;;;;;;;0.50;0.50;;;4.50;64.90;;;;;;5094019;28;20114;-69
2024/01/18 00:03:06;;;;;;;0.80;0.80;;;4.40;65.00;;;;;;5107082;28;20483;-69
2024/01/18 00:05:31;;;;;;;0.60;0.60;;;4.40;65.00;;;;;;5080229;28;20020;-69
2024/01/18 00:07:57;;;;;;;0.70;0.70;;;4.40;65.00;;;;;;5086535;28;20031;-69
2024/01/18 00:10:26;;;;;;;0.80;0.80;;;4.40;65.10;;;;;;5096451;28;20016;-68
2024/01/18 00:12:52;;;;;;;6.18;2.55;;;4.40;65.00;;;;;;5090351;28;20302;-69
2024/01/18 00:15:18;;;;;;;0.95;0.93;;;4.40;65.10;;;;;;5099093;28;20499;-68
2024/01/18 00:17:44;;;;;;;0.60;0.60;;;4.40;65.10;;;;;;5081685;28;20061;-68
2024/01/18 00:20:10;;;;;;;0.60;0.60;;;4.40;65.10;;;;;;5078754;28;20373;-69
2024/01/18 00:22:35;;;;;;;1.00;1.00;;;4.40;65.20;;;;;;5087935;28;20123;-69
2024/01/18 00:25:01;;;;;;;0.80;0.80;;;4.40;65.20;;;;;;5081694;28;20471;-69
2024/01/18 00:27:28;;;;;;;0.85;0.85;;;4.30;65.10;;;;;;5092940;28;20020;-68
2024/01/18 00:29:54;;;;;;;0.68;0.68;;;4.30;64.90;;;;;;5086476;28;20540;-69
2024/01/18 00:32:19;;;;;;;0.60;0.60;;;4.30;65.00;;;;;;5107713;28;20024;-68
2024/01/18 00:34:45;;;;;;;1.30;1.20;;;4.30;65.00;;;;;;5094824;28;20146;-68
2024/01/18 00:37:10;;;;;;;0.60;0.60;;;4.30;65.00;;;;;;5106502;28;20024;-68
2024/01/18 00:39:43;;;;;;;0.60;0.60;;;4.30;64.90;;;;;;5089553;28;20116;-69
2024/01/18 00:42:09;;;;;;;1.00;1.00;;;4.20;64.80;;;;;;5087407;28;20042;-68
2024/01/18 00:44:34;;;;;;;0.95;0.95;;;4.20;64.70;;;;;;5094991;28;20479;-68
2024/01/18 00:47:00;;;;;;;0.60;0.60;;;4.20;64.90;;;;;;5091195;28;20198;-68
2024/01/18 00:49:25;;;;;;;0.90;0.90;;;4.20;65.00;;;;;;5090947;28;20481;-68
2024/01/18 00:51:51;;;;;;;1.05;1.05;;;4.20;65.00;;;;;;5091722;28;20124;-68
2024/01/18 00:54:16;;;;;;;0.80;0.80;;;4.30;65.00;;;;;;5089355;28;20081;-69
2024/01/18 00:56:42;;;;;;;0.70;0.70;;;4.20;64.90;;;;;;5100089;28;20059;-69
2024/01/18 00:59:08;;;;;;;0.70;0.70;;;4.20;64.80;;;;;;5094336;28;20289;-71
2024/01/18 01:01:33;;;;;;;1.40;1.30;;;4.20;64.80;;;;;;5099923;28;20037;-72
2024/01/18 01:03:59;;;;;;;0.75;0.75;;;4.20;64.80;;;;;;5094472;28;20023;-71
2024/01/18 01:06:24;;;;;;;0.80;0.80;;;4.10;64.70;;;;;;5095305;28;20107;-72
2024/01/18 01:08:50;;;;;;;0.73;0.73;;;4.10;64.70;;;;;;5090022;28;20035;-72
2024/01/18 01:11:17;;;;;;;1.23;1.13;;;4.10;64.70;;;;;;5089277;28;20027;-71
2024/01/18 01:13:43;;;;;;;0.60;0.60;;;4.10;64.70;;;;;;5087513;28;20474;-72
2024/01/18 01:16:09;;;;;;;0.60;0.60;;;4.00;64.80;;;;;;5085302;28;20033;-72
2024/01/18 01:18:34;;;;;;;1.08;1.08;;;4.10;64.80;;;;;;5088974;28;20025;-72
2024/01/18 01:20:59;;;;;;;0.68;0.68;;;4.10;64.80;;;;;;5093435;28;20044;-72
2024/01/18 01:23:25;;;;;;;0.60;0.60;;;4.10;64.80;;;;;;5089486;28;20020;-71
2024/01/18 01:25:51;;;;;;;0.93;0.93;;;4.10;64.80;;;;;;5071512;28;20027;-71
2024/01/18 01:28:16;;;;;;;1.25;0.90;;;4.10;64.80;;;;;;5090951;28;20430;-71
2024/01/18 01:30:42;;;;;;;0.77;0.77;;;4.00;64.80;;;;;;5080971;28;20037;-71
2024/01/18 01:33:07;;;;;;;0.70;0.70;;;4.00;64.80;;;;;;5090209;28;20024;-71
2024/01/18 01:35:32;;;;;;;0.70;0.70;;;4.00;64.80;;;;;;5089850;28;20054;-72
2024/01/18 01:37:58;;;;;;;0.70;0.70;;;4.00;64.70;;;;;;5087350;28;20387;-72
2024/01/18 01:40:24;;;;;;;0.90;0.90;;;4.10;64.80;;;;;;5076720;28;20044;-71
2024/01/18 01:42:49;;;;;;;0.70;0.70;;;4.10;64.80;;;;;;5087229;28;20417;-71
2024/01/18 01:45:15;;;;;;;0.85;0.85;;;4.10;64.90;;;;;;5090198;28;20036;-72
2024/01/18 01:47:40;;;;;;;0.60;0.60;;;4.10;65.00;;;;;;5087467;28;20024;-72
2024/01/18 01:50:08;;;;;;;0.60;0.60;;;4.10;65.10;;;;;;5077352;28;20442;-71
2024/01/18 01:52:34;;;;;;;1.75;1.45;;;4.10;65.10;;;;;;5090672;28;20027;-71
2024/01/18 01:55:01;;;;;;;0.70;0.70;;;4.20;65.10;;;;;;5092266;28;20031;-71
2024/01/18 01:57:27;;;;;;;0.60;0.60;;;4.20;65.10;;;;;;5084367;28;20094;-71
2024/01/18 01:59:53;;;;;;;0.60;0.60;;;4.10;65.00;;;;;;5081419;28;20090;-71
2024/01/18 02:02:22;;;;;;;0.63;0.63;;;4.20;65.00;;;;;;5081733;28;20090;-72
2024/01/18 02:04:47;;;;;;;0.85;0.85;;;4.20;65.00;;;;;;5092742;28;20032;-71
2024/01/18 02:07:13;;;;;;;0.73;0.73;;;4.20;64.90;;;;;;5085078;28;20106;-71
2024/01/18 02:09:39;;;;;;;0.60;0.60;;;4.20;64.90;;;;;;5080073;28;20130;-71
2024/01/18 02:12:07;;;;;;;0.63;0.63;;;4.10;64.90;;;;;;5091108;28;20062;-71
2024/01/18 02:14:33;;;;;;;0.73;0.73;;;4.20;65.10;;;;;;5095943;28;20036;-71
2024/01/18 02:16:58;;;;;;;0.73;0.73;;;4.20;65.10;;;;;;5108154;28;20039;-71
2024/01/18 02:19:24;;;;;;;0.60;0.60;;;4.20;65.10;;;;;;5095162;28;20024;-71
2024/01/18 02:21:49;;;;;;;0.80;0.80;;;4.20;65.00;;;;;;5106194;28;20436;-71
2024/01/18 02:24:23;;;;;;;2.85;1.15;;;4.20;65.00;;;;;;5093976;28;20452;-71
2024/01/18 02:26:49;;;;;;;0.63;0.63;;;4.20;65.10;;;;;;5102118;28;20028;-71
2024/01/18 02:29:14;;;;;;;1.52;1.42;;;4.20;65.10;;;;;;5108437;28;20032;-71
2024/01/18 02:31:39;;;;;;;0.60;0.60;;;4.20;65.00;;;;;;5100425;28;20077;-71
2024/01/18 02:34:09;;;;;;;0.98;0.98;;;4.20;65.00;;;;;;5096001;28;20099;-72
2024/01/18 02:36:35;;;;;;;0.70;0.70;;;4.20;65.00;;;;;;5108433;28;20024;-71
2024/01/18 02:39:02;;;;;;;0.70;0.70;;;4.20;65.00;;;;;;5094709;28;20118;-71
2024/01/18 02:41:28;;;;;;;0.75;0.75;;;4.20;64.90;;;;;;5102802;28;20059;-71
2024/01/18 02:43:53;;;;;;;0.73;0.73;;;4.20;64.90;;;;;;5102884;28;20016;-71
2024/01/18 02:46:19;;;;;;;0.60;0.60;;;4.20;65.10;;;;;;5106555;28;20031;-71
2024/01/18 02:48:44;;;;;;;0.70;0.70;;;4.20;65.20;;;;;;5100505;28;20027;-71
2024/01/18 02:51:10;;;;;;;0.70;0.70;;;4.30;65.50;;;;;;5099905;28;20474;-71
2024/01/18 02:53:35;;;;;;;0.63;0.63;;;4.30;65.60;;;;;;5104892;28;20032;-71
2024/01/18 02:56:01;;;;;;;1.20;1.10;;;4.40;65.70;;;;;;5106875;28;20059;-71
2024/01/18 02:58:26;;;;;;;0.60;0.60;;;4.50;65.70;;;;;;5098009;28;20032;-71
2024/01/18 03:00:52;;;;;;;0.85;0.85;;;4.50;65.80;;;;;;5097117;28;20424;-71
2024/01/18 03:03:19;;;;;;;0.60;0.60;;;4.60;65.80;;;;;;5107578;28;20040;-71
2024/01/18 03:05:45;;;;;;;0.70;0.70;;;4.60;65.80;;;;;;5104301;28;20027;-71
2024/01/18 03:08:10;;;;;;;0.70;0.70;;;4.60;65.80;;;;;;5112114;28;20035;-71
2024/01/18 03:10:36;;;;;;;1.27;1.23;;;4.70;65.80;;;;;;5092950;28;20032;-71
2024/01/18 03:13:01;;;;;;;0.70;0.70;;;4.70;65.70;;;;;;5099042;28;20047;-71
2024/01/18 03:15:27;;;;;;;1.45;1.35;;;4.70;65.70;;;;;;5097288;28;20468;-71
2024/01/18 03:17:52;;;;;;;1.73;1.63;;;4.80;65.70;;;;;;5105549;28;20027;-69
2024/01/18 03:20:18;;;;;;;0.70;0.70;;;4.70;65.70;;;;;;5097857;28;20046;-68
2024/01/18 03:22:43;;;;;;;0.60;0.60;;;4.70;65.80;;;;;;5109849;28;20024;-68
2024/01/18 03:25:09;;;;;;;0.80;0.80;;;4.70;65.70;;;;;;5093363;28;20028;-68
2024/01/18 03:27:35;;;;;;;0.60;0.60;;;4.70;65.50;;;;;;5102422;28;20110;-68
2024/01/18 03:30:00;;;;;;;0.75;0.75;;;4.70;65.40;;;;;;5099741;28;20420;-68
2024/01/18 03:32:26;;;;;;;1.40;1.30;;;4.70;65.20;;;;;;5109771;28;20410;-68
2024/01/18 03:34:51;;;;;;;1.08;1.08;;;4.70;65.20;;;;;;5105147;28;20039;-69
2024/01/18 03:37:17;;;;;;;1.00;1.00;;;4.60;65.10;;;;;;5106311;28;20085;-69
2024/01/18 03:39:43;;;;;;;0.63;0.63;;;4.60;65.00;;;;;;5093315;28;20089;-68
2024/01/18 03:42:09;;;;;;;0.70;0.70;;;4.50;64.70;;;;;;5107094;28;20474;-69
2024/01/18 03:44:34;;;;;;;0.82;0.82;;;4.40;64.70;;;;;;5103551;28;20078;-69
2024/01/18 03:47:00;;;;;;;0.80;0.80;;;4.40;64.60;;;;;;5104559;28;20028;-68
2024/01/18 03:49:26;;;;;;;0.70;0.70;;;4.30;64.40;;;;;;5102274;28;20406;-68
2024/01/18 03:51:52;;;;;;;0.98;0.98;;;4.30;64.30;;;;;;5093529;28;20116;-68
2024/01/18 03:54:20;;;;;;;1.60;1.50;;;4.20;64.20;;;;;;5101820;28;20217;-68
2024/01/18 03:56:47;;;;;;;0.90;0.90;;;4.20;64.30;;;;;;5109183;28;20046;-68
2024/01/18 03:59:15;;;;;;;0.70;0.70;;;4.10;64.30;;;;;;5093307;28;20027;-68
2024/01/18 04:01:41;;;;;;;0.60;0.60;;;4.10;64.40;;;;;;5092404;28;20071;-69
2024/01/18 04:04:07;;;;;;;2.00;1.90;;;4.00;64.40;;;;;;5101485;28;20059;-68
2024/01/18 04:06:33;;;;;;;0.60;0.60;;;4.00;64.50;;;;;;5109160;28;20107;-68
2024/01/18 04:08:58;;;;;;;1.02;1.02;;;4.00;64.50;;;;;;5092830;28;20095;-68
2024/01/18 04:11:24;;;;;;;0.60;0.60;;;4.00;64.60;;;;;;5100086;28;20467;-68
2024/01/18 04:13:49;;;;;;;2.80;2.53;;;4.00;64.80;;;;;;5101083;28;20032;-68
2024/01/18 04:16:15;;;;;;;1.45;1.35;;;4.10;64.80;;;;;;5107568;28;20032;-68
2024/01/18 04:18:41;;;;;;;0.80;0.80;;;4.00;64.80;;;;;;5094435;28;20031;-69
2024/01/18 04:21:06;;;;;;;0.65;0.65;;;4.00;64.80;;;;;;5097478;28;20032;-68
2024/01/18 04:23:32;;;;;;;0.98;0.98;;;4.00;64.70;;;;;;5103723;28;20032;-68
2024/01/18 04:25:58;;;;;;;0.60;0.60;;;4.00;64.70;;;;;;5088276;28;20585;-68
2024/01/18 04:28:23;;;;;;;0.65;0.65;;;4.00;64.70;;;;;;5078288;28;20043;-71
2024/01/18 04:30:49;;;;;;;0.80;0.80;;;4.00;64.70;;;;;;5092367;28;20034;-70
2024/01/18 04:33:14;;;;;;;0.60;0.60;;;4.00;64.70;;;;;;5093864;28;20111;-71
2024/01/18 04:35:40;;;;;;;0.70;0.70;;;4.00;64.60;;;;;;5097929;28;20028;-71
2024/01/18 04:38:08;;;;;;;0.70;0.70;;;3.90;64.60;;;;;;5093943;28;20169;-71
2024/01/18 04:40:34;;;;;;;0.93;0.93;;;3.90;64.60;;;;;;5074984;28;20056;-71
2024/01/18 04:42:59;;;;;;;1.52;1.42;;;3.90;64.60;;;;;;5108170;28;20500;-71
2024/01/18 04:45:25;;;;;;;0.65;0.65;;;3.90;64.50;;;;;;5100030;28;20424;-71
2024/01/18 04:47:56;;;;;;;0.90;0.90;;;3.90;64.60;;;;;;5082715;28;20125;-70
2024/01/18 04:50:24;;;;;;;1.20;1.20;;;3.90;64.60;;;;;;5092549;28;20028;-71
2024/01/18 04:52:50;;;;;;;0.77;0.77;;;3.80;64.60;;;;;;5109100;28;20368;-71
2024/01/18 04:55:16;;;;;;;1.60;1.50;;;3.80;64.60;;;;;;5098371;28;20022;-72
2024/01/18 04:57:42;;;;;;;0.65;0.65;;;3.80;64.60;;;;;;5101885;28;20058;-71
2024/01/18 05:00:10;;;;;;;1.00;1.00;;;3.80;64.60;;;;;;5092096;28;20024;-71
2024/01/18 05:02:40;;;;;;;1.05;1.05;;;3.80;64.60;;;;;;5108437;28;20059;-71
2024/01/18 05:05:08;;;;;;;0.60;0.60;;;3.80;64.60;;;;;;5096653;28;20034;-71
2024/01/18 05:07:34;;;;;;;0.90;0.90;;;3.80;64.60;;;;;;5100723;28;20031;-71
2024/01/18 05:10:00;;;;;;;1.13;1.13;;;3.80;64.60;;;;;;5080735;28;20083;-71
2024/01/18 05:12:25;;;;;;;0.60;0.60;;;3.80;64.60;;;;;;5092443;28;20056;-71
2024/01/18 05:14:51;;;;;;;0.70;0.70;;;3.80;64.60;;;;;;5096926;28;20077;-71
2024/01/18 05:17:16;;;;;;;1.48;1.38;;;3.70;64.50;;;;;;5100525;28;20027;-71
2024/01/18 05:19:43;;;;;;;0.70;0.70;;;3.70;64.40;;;;;;5101432;28;20073;-71
2024/01/18 05:22:09;;;;;;;0.88;0.88;;;3.70;64.30;;;;;;5105263;28;20032;-71
2024/01/18 05:24:35;;;;;;;0.65;0.65;;;3.60;64.20;;;;;;5094450;28;20031;-71
2024/01/18 05:27:00;;;;;;;0.73;0.73;;;3.60;64.10;;;;;;5106068;28;20024;-71
2024/01/18 05:29:26;;;;;;;0.80;0.80;;;3.50;64.10;;;;;;5092781;28;20024;-72
2024/01/18 05:31:51;;;;;;;0.70;0.70;;;3.50;64.00;;;;;;5098853;28;20036;-71
2024/01/18 05:34:17;;;;;;;1.40;1.30;;;3.50;64.00;;;;;;5100289;28;20029;-71
2024/01/18 05:36:43;;;;;;;0.60;0.60;;;3.40;64.00;;;;;;5090577;28;20035;-71
2024/01/18 05:39:08;;;;;;;0.80;0.80;;;3.40;64.00;;;;;;5080371;28;20069;-71
2024/01/18 05:41:34;;;;;;;0.68;0.68;;;3.40;64.00;;;;;;5087658;28;20107;-71
2024/01/18 05:44:00;;;;;;;1.35;1.25;;;3.30;64.00;;;;;;5083327;28;20077;-71
2024/01/18 05:46:26;;;;;;;0.70;0.70;;;3.30;64.10;;;;;;5108346;28;20027;-71
2024/01/18 05:48:51;;;;;;;1.33;1.23;;;3.30;64.10;;;;;;5092915;28;20020;-71
2024/01/18 05:51:17;;;;;;;1.05;0.95;;;3.20;64.10;;;;;;5098826;28;20042;-71
2024/01/18 05:53:42;;;;;;;0.63;0.63;;;3.20;64.00;;;;;;5105358;28;20030;-71
2024/01/18 05:56:08;;;;;;;0.70;0.70;;;3.20;64.00;;;;;;5109287;28;20432;-71
2024/01/18 05:58:34;;;;;;;0.63;0.63;;;3.20;63.90;;;;;;5098859;28;20032;-71
2024/01/18 06:01:00;;;;;;;0.68;0.68;;;3.10;63.90;;;;;;5099336;28;20119;-72
2024/01/18 06:03:26;;;;;;;0.90;0.90;;;3.10;63.90;;;;;;5107408;28;20024;-71
2024/01/18 06:05:52;;;;;;;1.35;1.13;;;3.10;63.80;;;;;;5106426;28;20502;-72
2024/01/18 06:08:17;;;;;;;0.70;0.70;;;3.10;63.80;;;;;;5100237;28;20107;-72
2024/01/18 06:10:43;;;;;;;0.75;0.75;;;3.00;63.70;;;;;;5078940;28;20028;-72
2024/01/18 06:13:09;;;;;;;0.70;0.70;;;3.00;63.70;;;;;;5109728;28;20556;-72
2024/01/18 06:15:35;;;;;;;0.93;0.93;;;3.00;63.70;;;;;;5103846;28;20100;-71
2024/01/18 06:18:03;;;;;;;0.70;0.70;;;2.90;63.60;;;;;;5102186;28;20118;-71
2024/01/18 06:20:29;;;;;;;0.60;0.60;;;2.90;63.60;;;;;;5095296;28;20032;-71
2024/01/18 06:22:57;;;;;;;2.28;1.45;;;2.80;63.60;;;;;;5110950;28;20134;-71
2024/01/18 06:25:23;;;;;;;0.70;0.70;;;2.80;63.70;;;;;;5101967;28;20023;-71
2024/01/18 06:27:49;;;;;;;0.98;0.90;;;2.80;63.60;;;;;;5103446;28;20032;-72
2024/01/18 06:30:15;;;;;;;2.05;1.33;;;2.80;63.60;;;;;;5094646;28;20016;-71
2024/01/18 06:32:40;;;;;;;0.70;0.70;;;2.80;63.70;;;;;;5110918;28;20028;-71
2024/01/18 06:35:06;;;;;;;0.70;0.70;;;2.70;63.70;;;;;;5099383;28;20049;-71
2024/01/18 06:37:32;;;;;;;0.70;0.70;;;2.70;63.60;;;;;;5105902;28;20028;-71
2024/01/18 06:39:57;;;;;;;1.00;0.98;;;2.70;63.30;;;;;;5094444;28;20027;-71
2024/01/18 06:42:23;;;;;;;2.90;1.35;;;2.60;63.10;;;;;;5110031;28;20047;-71
2024/01/18 06:44:48;;;;;;;0.68;0.68;;;2.50;62.80;;;;;;5085973;28;20054;-71
2024/01/18 06:47:14;;;;;;;2.50;1.30;;;2.40;62.60;;;;;;5089723;28;20479;-71
2024/01/18 06:49:40;;;;;;;1.70;1.60;;;2.30;62.40;;;;;;5094485;28;20034;-71
2024/01/18 06:52:05;;;;;;;1.17;1.17;;;2.20;62.20;;;;;;5107751;28;20062;-71
2024/01/18 06:54:31;;;;;;;0.70;0.70;;;2.10;62.10;;;;;;5097180;28;20031;-71
2024/01/18 06:56:57;;;;;;;0.70;0.70;;;2.00;62.00;;;;;;5109966;28;20040;-71
2024/01/18 06:59:22;;;;;;;0.70;0.70;;;1.90;61.90;;;;;;5094166;28;20016;-71
2024/01/18 07:01:47;;;;;;;0.65;0.65;;;1.80;61.80;;;;;;5082036;28;20089;-71
2024/01/18 07:04:13;;;;;;;0.70;0.70;;;1.80;61.70;;;;;;5092911;28;20059;-71
2024/01/18 07:06:39;;;;;;;0.70;0.70;;;1.70;61.50;;;;;;5104166;28;20032;-71
2024/01/18 07:09:06;;;;;;;0.70;0.70;;;1.60;61.60;;;;;;5091477;28;20093;-71
2024/01/18 07:11:31;;;;;;;0.85;0.85;;;1.50;61.50;;;;;;5093664;28;20024;-71
2024/01/18 07:13:57;;;;;;;2.17;2.08;;;1.40;61.60;;;;;;5090148;28;20024;-71
2024/01/18 07:16:23;;;;;;;0.60;0.60;;;1.40;61.50;;;;;;5106479;28;20475;-71
2024/01/18 07:18:48;;;;;;;3.05;1.55;;;1.30;61.40;;;;;;5109729;28;20040;-71
2024/01/18 07:21:15;;;;;;;0.60;0.60;;;1.30;61.30;;;;;;5094539;28;20024;-71
2024/01/18 07:23:40;;;;;;;0.70;0.70;;;1.20;61.20;;;;;;5092466;28;20059;-71
2024/01/18 07:26:06;;;;;;;0.70;0.70;;;1.20;61.10;;;;;;5098664;28;20048;-71
2024/01/18 07:28:31;;;;;;;0.70;0.70;;;1.10;60.90;;;;;;5107368;28;20027;-71
2024/01/18 07:30:57;;;;;;;0.68;0.68;;;1.10;60.80;;;;;;5090205;28;20107;-71
2024/01/18 07:33:22;;;;;;;0.70;0.70;;;1.00;60.80;;;;;;5081404;28;20077;-71
2024/01/18 07:35:48;;;;;;;5.30;1.30;;;0.90;60.70;;;;;;5097724;28;20032;-71
2024/01/18 07:38:14;;;;;;;0.80;0.80;;;0.90;60.70;;;;;;5104150;28;20521;-71
2024/01/18 07:40:39;;;;;;;0.70;0.70;;;0.90;60.70;;;;;;5088429;28;20016;-71
2024/01/18 07:43:05;;;;;;;0.77;0.77;;;0.80;60.70;;;;;;5090191;28;20156;-71
2024/01/18 07:45:31;;;;;;;0.70;0.70;;;0.70;60.70;;;;;;5093535;28;20016;-71
2024/01/18 07:47:57;;;;;;;2.35;2.25;;;0.70;60.70;;;;;;5091735;28;20101;-70
2024/01/18 07:50:22;;;;;;;1.10;1.10;;;0.70;61.00;;;;;;5090228;28;20416;-70
2024/01/18 07:52:48;;;;;;;1.02;1.02;;;0.80;61.20;;;;;;5073210;28;20039;-72
2024/01/18 07:55:13;;;;;;;1.08;1.08;;;0.80;61.60;;;;;;5078879;28;20028;-71
2024/01/18 07:57:39;;;;;;;0.70;0.70;;;0.80;61.70;;;;;;5068147;28;20233;-67
2024/01/18 08:00:08;;;;;;;0.88;0.88;;;0.90;61.80;;;;;;5090196;28;20450;-68
2024/01/18 08:02:34;;;;;;;2.45;2.25;;;0.90;61.60;;;;;;5084299;28;20029;-68
2024/01/18 08:05:00;;;;;;;0.77;0.77;;;0.90;61.40;;;;;;5104280;28;20364;-68
2024/01/18 08:07:25;;;;;;;1.13;1.13;;;0.90;61.30;;;;;;5083797;28;20369;-68
2024/01/18 08:09:51;;;;;;;0.70;0.70;;;0.90;61.10;;;;;;5091893;28;20039;-69
2024/01/18 08:12:16;;;;;;;0.70;0.70;;;0.80;61.00;;;;;;5079056;28;20043;-69
2024/01/18 08:14:43;;;;;;;1.02;1.02;;;0.80;60.90;;;;;;5088765;28;20032;-69
2024/01/18 08:17:09;;;;;;;0.95;0.95;;;0.80;60.90;;;;;;5097196;28;20462;-68
2024/01/18 08:19:38;;;;;;;0.80;0.80;;;0.80;61.00;;;;;;5084537;28;20024;-68
2024/01/18 08:22:03;;;;;;;0.70;0.70;;;0.90;61.20;;;;;;5100147;28;20030;-69
2024/01/18 08:24:29;;;;;;;0.85;0.85;;;0.90;61.20;;;;;;5097202;28;20028;-70
2024/01/18 08:26:55;;;;;;;1.73;1.63;;;0.90;61.30;;;;;;5106549;28;20097;-67
2024/01/18 08:29:23;;;;;;;0.70;0.70;;;1.10;62.10;;;;;;5091317;28;20052;-69
2024/01/18 08:31:49;;;;;;;4.47;1.23;;;1.30;62.70;;;;;;5099818;28;20084;-69
2024/01/18 08:34:14;;;;;;;1.42;1.38;;;1.60;63.80;;;;;;5095469;28;20028;-69
2024/01/18 08:36:40;;;;;;;0.73;0.73;;;2.00;65.30;;;;;;5106265;28;20039;-69
2024/01/18 08:39:07;;;;;;;0.70;0.70;;;2.50;66.60;;;;;;5092002;28;20026;-69
2024/01/18 08:41:33;;;;;;;0.70;0.70;;;3.00;67.40;;;;;;5098208;28;20482;-67
2024/01/18 08:43:58;;;;;;;0.70;0.70;;;3.40;67.50;;;;;;5099129;28;20027;-68
2024/01/18 08:46:24;;;;;;;0.95;0.95;;;3.80;67.70;;;;;;5101381;28;20111;-68
2024/01/18 08:48:49;;;;;;;0.65;0.65;;;4.20;68.10;;;;;;5107596;28;20024;-67
2024/01/18 08:51:15;;;;;;;0.75;0.75;;;4.70;68.20;;;;;;5098442;28;20081;-70
2024/01/18 08:53:40;;;;;;;0.70;0.70;;;5.20;68.30;;;;;;5104978;28;20039;-69
2024/01/18 08:56:07;;;;;;;0.70;0.70;;;5.70;68.20;;;;;;5105581;28;20482;-68
2024/01/18 08:58:32;;;;;;;1.15;1.15;;;6.20;67.20;;;;;;5088893;28;20024;-69
2024/01/18 09:00:58;;;;;;;0.98;0.98;;;6.60;66.90;;;;;;5095427;28;20046;-69
2024/01/18 09:03:23;;;;;;;0.70;0.70;;;7.00;66.60;;;;;;5070850;28;20071;-71
2024/01/18 09:05:50;;;;;;;1.10;1.00;;;7.40;66.00;;;;;;5101747;28;20095;-69
2024/01/18 09:08:15;;;;;;;0.70;0.70;;;7.80;65.50;;;;;;5096124;28;20024;-69
2024/01/18 09:10:41;;;;;;;0.80;0.80;;;8.20;65.20;;;;;;5093564;28;20081;-70
2024/01/18 09:13:07;;;;;;;0.90;0.90;;;8.60;64.90;;;;;;5106178;28;20574;-69
2024/01/18 09:15:35;;;;;;;0.60;0.60;;;9.00;64.70;;;;;;5098781;28;20036;-69
2024/01/18 09:18:01;;;;;;;0.95;0.95;;;9.30;64.00;;;;;;5098572;28;20020;-68
2024/01/18 09:20:27;;;;;;;0.82;0.82;;;9.70;63.40;;;;;;5089352;28;20028;-67
2024/01/18 09:22:55;;;;;;;0.95;0.95;;;10.00;62.70;;;;;;5089354;28;20101;-69
2024/01/18 09:25:20;;;;;;;8.80;1.90;;;10.20;62.00;;;;;;5097200;28;20022;-70
2024/01/18 09:27:46;;;;;;;1.27;1.17;;;10.50;62.00;;;;;;5081669;28;20028;-69
2024/01/18 09:30:12;;;;;;;0.82;0.82;;;10.80;61.70;;;;;;5092982;28;20383;-70
2024/01/18 09:32:39;;;;;;;0.73;0.73;;;11.00;61.40;;;;;;5108680;28;20032;-70
2024/01/18 09:35:05;;;;;;;0.75;0.75;;;11.20;61.10;;;;;;5103606;28;20433;-70
2024/01/18 09:37:31;;;;;;;0.70;0.70;;;11.50;61.10;;;;;;5103437;28;20032;-70
2024/01/18 09:39:57;;;;;;;2.00;1.30;;;11.70;61.00;;;;;;5099082;28;20467;-70
2024/01/18 09:42:30;;;;;;;0.80;0.80;;;12.00;60.40;;;;;;5082491;28;20039;-70
2024/01/18 09:45:01;;;;;;;0.55;0.55;;;12.20;60.00;;;;;;5086185;28;20555;-70
2024/01/18 09:47:26;;;;;;;1.10;1.00;;;12.30;59.80;;;;;;5086442;28;20039;-70
2024/01/18 09:49:54;;;;;;;1.70;1.60;;;12.60;59.30;;;;;;5082800;28;20708;-68
2024/01/18 09:52:20;;;;;;;0.73;0.73;;;12.80;59.00;;;;;;5080522;28;20052;-67
2024/01/18 09:54:47;;;;;;;0.80;0.80;;;12.80;58.50;;;;;;5096393;28;20066;-68
2024/01/18 09:57:16;;;;;;;1.73;1.60;;;13.10;58.50;;;;;;5096864;28;20024;-68
2024/01/18 09:59:44;;;;;;;0.70;0.70;;;13.30;58.30;;;;;;5111004;28;20451;-68
2024/01/18 10:02:09;;;;;;;0.80;0.80;;;13.50;57.90;;;;;;5097909;28;20467;-68
2024/01/18 10:04:36;;;;;;;0.52;0.52;;;13.60;57.80;;;;;;5098246;28;20115;-68
2024/01/18 10:07:01;;;;;;;0.60;0.60;;;13.80;57.30;;;;;;5091665;28;20028;-68
2024/01/18 10:09:28;;;;;;;0.77;0.77;;;13.90;56.80;;;;;;5102703;28;20481;-69
2024/01/18 10:11:53;;;;;;;0.80;0.80;;;14.00;56.50;;;;;;5102681;28;20077;-68
2024/01/18 10:14:41;;;;;;;1.38;1.27;;;14.00;56.40;;;;;;5098280;28;20475;-69
2024/01/18 10:17:07;;;;;;;2.13;1.25;;;14.20;56.50;;;;;;5063228;28;20032;-68
2024/01/18 10:19:34;;;;;;;0.70;0.70;;;14.30;56.00;;;;;;5076975;28;20143;-68
2024/01/18 10:22:00;;;;;;;0.50;0.50;;;14.40;55.90;;;;;;5085261;28;20066;-71
2024/01/18 10:24:26;;;;;;;0.90;0.90;;;14.40;55.10;;;;;;5075117;28;20028;-71
2024/01/18 10:27:02;;;;;;;0.80;0.80;;;14.40;55.10;;;;;;5097484;28;20051;-69
2024/01/18 10:29:31;;;;;;;1.45;1.35;;;14.40;54.80;;;;;;5090755;28;20024;-69
2024/01/18 10:31:59;;;;;;;0.68;0.68;;;14.30;54.40;;;;;;5090452;28;20027;-69
2024/01/18 10:34:24;;;;;;;0.80;0.80;;;14.30;54.10;;;;;;5092431;28;20028;-71
2024/01/18 10:36:50;;;;;;;0.60;0.60;;;14.30;54.50;;;;;;5092557;28;20043;-71
2024/01/18 10:39:17;;;;;;;0.93;0.93;;;14.30;54.90;;;;;;5088460;28;20060;-71
2024/01/18 10:41:44;;;;;;;1.17;1.15;;;14.40;54.90;;;;;;5096458;28;20491;-71
2024/01/18 10:44:10;;;;;;;0.77;0.77;;;14.40;54.20;;;;;;5094096;28;20016;-72
2024/01/18 10:46:35;;;;;;;0.60;0.60;;;14.40;53.80;;;;;;5096766;28;20039;-71
2024/01/18 10:49:01;;;;;;;0.70;0.70;;;14.30;54.20;;;;;;5091084;28;20036;-72
2024/01/18 10:51:27;;;;;;;0.70;0.70;;;14.30;54.20;;;;;;5087405;28;20044;-72
2024/01/18 10:53:54;;;;;;;1.40;1.30;;;14.30;53.90;;;;;;5092394;28;20023;-71
2024/01/18 10:56:22;;;;;;;0.60;0.60;;;14.40;53.80;;;;;;5094121;28;20032;-70
2024/01/18 10:58:48;;;;;;;0.63;0.63;;;14.30;53.80;;;;;;5110340;28;20039;-71
2024/01/18 11:01:14;;;;;;;0.60;0.60;;;14.40;53.50;;;;;;5099315;28;20031;-71
2024/01/18 11:03:41;;;;;;;1.23;1.13;;;14.30;52.20;;;;;;5103989;28;20502;-71
2024/01/18 11:06:09;;;;;;;0.52;0.52;;;14.20;52.50;;;;;;5097339;28;20024;-71
2024/01/18 11:08:36;;;;;;;0.70;0.70;;;14.00;52.60;;;;;;5110091;28;20126;-71
2024/01/18 11:11:03;;;;;;;0.80;0.80;;;13.90;52.10;;;;;;5097513;28;20445;-71
2024/01/18 11:13:28;;;;;;;1.55;1.40;;;13.80;52.80;;;;;;5089527;28;20048;-71
2024/01/18 11:15:54;;;;;;;0.52;0.52;;;13.70;53.40;;;;;;5101907;28;20028;-71
2024/01/18 11:18:21;;;;;;;2.38;1.60;;;13.70;53.90;;;;;;5086435;28;20434;-72
2024/01/18 11:21:00;;;;;;;0.50;0.50;;;13.80;54.30;;;;;;5095769;28;20027;-71
2024/01/18 11:23:27;;;;;;;0.73;0.73;;;13.90;54.10;;;;;;5108935;28;20028;-71
2024/01/18 11:25:53;;;;;;;0.55;0.55;;;13.90;54.10;;;;;;5105087;28;20020;-71
2024/01/18 11:28:23;;;;;;;0.90;0.90;;;14.00;53.50;;;;;;5098229;28;20024;-73
2024/01/18 11:30:49;;;;;;;0.80;0.80;;;13.90;52.80;;;;;;5084172;28;20031;-74
2024/01/18 11:33:14;;;;;;;0.50;0.50;;;13.80;53.20;;;;;;5106730;28;20536;-74
2024/01/18 11:35:41;;;;;;;0.70;0.70;;;13.70;54.00;;;;;;5091083;28;20064;-74
2024/01/18 11:38:20;;;;;;;0.52;0.52;;;13.70;54.00;;;;;;5100057;28;20475;-74
2024/01/18 11:40:46;;;;;;;1.00;1.00;;;13.70;54.00;;;;;;5091455;28;20024;-74
2024/01/18 11:43:12;;;;;;;0.60;0.60;;;13.60;54.20;;;;;;5089973;28;20024;-74
2024/01/18 11:45:38;;;;;;;0.50;0.50;;;13.60;54.50;;;;;;5081376;28;20028;-74
2024/01/18 11:48:04;;;;;;;0.50;0.50;;;13.60;54.80;;;;;;5105923;28;20076;-74
2024/01/18 11:50:30;;;;;;;0.60;0.60;;;13.80;55.60;;;;;;5090165;28;20085;-74
2024/01/18 11:52:55;;;;;;;0.70;0.70;;;14.00;56.20;;;;;;5108822;28;20032;-74
2024/01/18 11:55:23;;;;;;;0.50;0.50;;;14.00;55.50;;;;;;5099601;28;20023;-74
2024/01/18 11:57:51;;;;;;;0.50;0.50;;;13.90;55.00;;;;;;5104398;28;20059;-74
2024/01/18 12:00:17;;;;;;;0.60;0.60;;;13.80;54.30;;;;;;5097411;28;20075;-74
2024/01/18 12:02:43;;;;;;;0.60;0.60;;;13.50;53.50;;;;;;5086482;28;20488;-74
2024/01/18 12:05:08;;;;;;;2.38;1.15;;;13.20;54.20;;;;;;5104910;28;20038;-74
2024/01/18 12:07:35;;;;;;;0.60;0.60;;;13.00;54.40;;;;;;5098110;28;20045;-74
2024/01/18 12:10:01;;;;;;;0.50;0.50;;;12.70;54.50;;;;;;5083698;28;20402;-74
2024/01/18 12:12:28;;;;;;;1.15;1.05;;;12.50;54.70;;;;;;5108673;28;20034;-74
2024/01/18 12:14:53;;;;;;;0.80;0.80;;;12.40;54.90;;;;;;5095561;28;20412;-74
2024/01/18 12:17:19;;;;;;;0.50;0.50;;;12.20;54.30;;;;;;5098430;28;20035;-74
2024/01/18 12:19:46;;;;;;;0.85;0.85;;;11.80;54.40;;;;;;5095367;28;20024;-74
2024/01/18 12:22:12;;;;;;;0.60;0.60;;;11.40;54.10;;;;;;5106208;28;20046;-74
2024/01/18 12:24:39;;;;;;;0.63;0.63;;;11.00;54.50;;;;;;5092425;28;20036;-74
2024/01/18 12:27:06;;;;;;;0.60;0.60;;;10.50;55.30;;;;;;5106887;28;20019;-74
2024/01/18 12:29:33;;;;;;;0.60;0.60;;;10.20;56.20;;;;;;5092068;28;20082;-74
2024/01/18 12:32:02;;;;;;;0.50;0.50;;;9.90;56.80;;;;;;5103418;28;20062;-73
2024/01/18 12:34:29;;;;;;;0.57;0.57;;;9.70;57.30;;;;;;5094998;28;20367;-74
2024/01/18 12:36:55;;;;;;;1.17;1.13;;;9.40;58.00;;;;;;5059777;28;20031;-74
2024/01/18 12:39:21;;;;;;;0.80;0.80;;;9.30;58.80;;;;;;5104224;28;20086;-74
2024/01/18 12:41:49;;;;;;;0.70;0.70;;;9.10;58.90;;;;;;5093357;28;20121;-74
2024/01/18 12:44:15;;;;;;;0.50;0.50;;;9.00;59.20;;;;;;5097988;28;20475;-74
2024/01/18 12:46:41;;;;;;;0.57;0.57;;;8.80;59.50;;;;;;5107815;28;20040;-73
2024/01/18 12:49:07;;;;;;;1.20;1.10;;;8.70;59.70;;;;;;5072271;28;20022;-74